Time;durP1;ratioP1;P1;durP2;ratioP2;P2;SDS_P1;SDS_P2;PMS_P1;PMS_P2;Temp;Humidity;BMP_temperature;BMP_pressure;BME280_temperature;BME280_humidity;BME280_pressure;Samples;Min_cycle;Max_cycle;Signal;HPM_P1;HPM_P2
2024/01/08 00:00:53;;;;;;;;;;;;;;;18.46;61.87;97272.16;2088856;28;19924;-65
2024/01/08 00:01:55;;;;;;;;;;;;;;;18.44;61.35;97269.72;2087030;28;20395;-65
2024/01/08 00:02:55;;;;;;;;;;;;;;;18.42;61.79;97274.50;2088500;28;19933;-66
2024/01/08 00:03:57;;;;;;;;;;;;;;;18.44;61.45;97280.47;2087438;28;22691;-66
2024/01/08 00:04:58;;;;;;;;;;;;;;;18.41;61.73;97270.16;2091802;28;19943;-65
2024/01/08 00:05:59;;;;;;;;;;;;;;;18.41;61.73;97272.03;2090396;28;20015;-65
2024/01/08 00:07:00;;;;;;;;;;;;;;;18.40;61.61;97268.56;2088920;28;19960;-66
2024/01/08 00:08:01;;;;;;;;;;;;;;;18.40;61.72;97276.59;2089923;28;20394;-66
2024/01/08 00:09:03;;;;;;;;;;;;;;;18.39;61.58;97274.97;2087418;28;20245;-65
2024/01/08 00:10:04;;;;;;;;;;;;;;;18.37;61.78;97277.06;2090171;28;19948;-65
2024/01/08 00:11:06;;;;;;;;;;;;;;;18.38;61.74;97273.31;2090216;28;19928;-65
2024/01/08 00:12:06;;;;;;;;;;;;;;;18.37;61.82;97274.41;2088614;28;20006;-65
2024/01/08 00:13:10;;;;;;;;;;;;;;;18.34;61.62;97277.56;2089464;28;19971;-66
2024/01/08 00:14:10;;;;;;;;;;;;;;;18.35;61.80;97275.69;2087666;28;20352;-65
2024/01/08 00:15:11;;;;;;;;;;;;;;;18.36;61.69;97280.81;2089249;28;19936;-65
2024/01/08 00:16:12;;;;;;;;;;;;;;;18.35;61.84;97273.81;2090306;28;20015;-66
2024/01/08 00:17:13;;;;;;;;;;;;;;;18.35;61.41;97283.72;2088845;28;19928;-66
2024/01/08 00:18:15;;;;;;;;;;;;;;;18.35;61.78;97284.53;2088586;28;19943;-66
2024/01/08 00:19:16;;;;;;;;;;;;;;;18.33;61.51;97281.28;2092186;28;19982;-65
2024/01/08 00:20:18;;;;;;;;;;;;;;;18.31;61.46;97284.19;2088273;28;20646;-66
2024/01/08 00:21:18;;;;;;;;;;;;;;;18.29;61.79;97288.16;2088451;28;19959;-66
2024/01/08 00:22:20;;;;;;;;;;;;;;;18.30;61.59;97287.09;2090266;28;20890;-66
2024/01/08 00:23:20;;;;;;;;;;;;;;;18.29;61.56;97288.16;2088525;28;19933;-65
2024/01/08 00:24:21;;;;;;;;;;;;;;;18.26;61.64;97289.44;2089745;28;20370;-66
2024/01/08 00:25:22;;;;;;;;;;;;;;;18.24;61.57;97288.06;2091313;28;19967;-66
2024/01/08 00:26:24;;;;;;;;;;;;;;;18.25;61.56;97285.16;2083051;28;19940;-65
2024/01/08 00:27:26;;;;;;;;;;;;;;;18.25;61.62;97292.38;2089315;28;20383;-65
2024/01/08 00:28:28;;;;;;;;;;;;;;;18.24;61.91;97298.78;2088490;28;19931;-66
2024/01/08 00:29:29;;;;;;;;;;;;;;;18.22;61.91;97290.97;2090684;28;19936;-65
2024/01/08 00:30:30;;;;;;;;;;;;;;;18.25;61.84;97297.75;2089437;28;19959;-67
2024/01/08 00:31:32;;;;;;;;;;;;;;;18.23;61.59;97299.84;2085569;28;20514;-65
2024/01/08 00:32:32;;;;;;;;;;;;;;;18.20;61.66;97298.44;2089753;28;19932;-66
2024/01/08 00:33:34;;;;;;;;;;;;;;;18.20;61.80;97308.38;2086248;28;20647;-66
2024/01/08 00:34:36;;;;;;;;;;;;;;;18.17;61.99;97293.53;2089591;28;19944;-66
2024/01/08 00:35:37;;;;;;;;;;;;;;;18.19;61.89;97306.72;2088875;28;19924;-66
2024/01/08 00:36:38;;;;;;;;;;;;;;;18.18;61.90;97302.41;2089741;28;19925;-65
2024/01/08 00:37:40;;;;;;;;;;;;;;;18.17;61.71;97303.47;2090432;28;19940;-65
2024/01/08 00:38:42;;;;;;;;;;;;;;;18.16;61.99;97310.69;2089282;28;20441;-65
2024/01/08 00:39:43;;;;;;;;;;;;;;;18.14;61.71;97306.63;2085604;28;19929;-65
2024/01/08 00:40:45;;;;;;;;;;;;;;;18.12;61.96;97306.03;2089391;28;19932;-65
2024/01/08 00:41:45;;;;;;;;;;;;;;;18.12;62.05;97303.34;2090876;28;19935;-65
2024/01/08 00:42:47;;;;;;;;;;;;;;;18.07;62.09;97315.56;2089819;28;19990;-65
2024/01/08 00:43:51;;;;;;;;;;;;;;;18.06;61.76;97319.31;2085926;28;19928;-65
2024/01/08 00:44:52;;;;;;;;;;;;;;;18.06;61.98;97318.50;2088458;28;19925;-65
2024/01/08 00:45:53;;;;;;;;;;;;;;;18.04;62.04;97316.03;2089819;28;19928;-65
2024/01/08 00:46:55;;;;;;;;;;;;;;;18.04;62.02;97313.34;2088032;28;19932;-65
2024/01/08 00:47:55;;;;;;;;;;;;;;;18.02;61.96;97323.50;2086364;28;20414;-65
2024/01/08 00:48:57;;;;;;;;;;;;;;;18.01;61.89;97316.50;2090495;28;19971;-65
2024/01/08 00:49:58;;;;;;;;;;;;;;;17.97;62.23;97315.34;2082677;28;19932;-65
2024/01/08 00:50:59;;;;;;;;;;;;;;;17.94;62.25;97320.34;2087291;28;19924;-65
2024/01/08 00:52:00;;;;;;;;;;;;;;;17.97;62.28;97318.03;2087918;28;21227;-65
2024/01/08 00:53:01;;;;;;;;;;;;;;;17.99;62.00;97325.81;2091121;28;20390;-65
2024/01/08 00:54:01;;;;;;;;;;;;;;;17.93;62.35;97327.56;2086929;28;20001;-65
2024/01/08 00:55:04;;;;;;;;;;;;;;;17.94;62.30;97325.69;2090418;28;19925;-66
2024/01/08 00:56:05;;;;;;;;;;;;;;;17.91;62.27;97324.28;2091896;28;19937;-65
2024/01/08 00:57:07;;;;;;;;;;;;;;;17.91;62.21;97326.16;2087870;28;20534;-66
2024/01/08 00:58:08;;;;;;;;;;;;;;;17.89;62.21;97329.09;2091201;28;19980;-65
2024/01/08 00:59:11;;;;;;;;;;;;;;;17.91;62.41;97332.34;2088014;28;19933;-65
2024/01/08 01:00:11;;;;;;;;;;;;;;;17.90;62.36;97325.34;2091190;28;19924;-65
2024/01/08 01:01:13;;;;;;;;;;;;;;;17.86;62.34;97329.56;2091353;28;19982;-64
2024/01/08 01:02:14;;;;;;;;;;;;;;;17.84;62.41;97334.31;2090353;28;19929;-66
2024/01/08 01:03:15;;;;;;;;;;;;;;;17.82;62.55;97331.06;2088800;28;19954;-65
2024/01/08 01:04:16;;;;;;;;;;;;;;;17.84;62.57;97329.78;2087909;28;20541;-66
2024/01/08 01:05:17;;;;;;;;;;;;;;;17.83;62.33;97330.84;2091408;28;19975;-65
2024/01/08 01:06:20;;;;;;;;;;;;;;;17.82;62.39;97331.88;2088541;28;20315;-65
2024/01/08 01:07:21;;;;;;;;;;;;;;;17.83;62.41;97332.69;2088898;28;19932;-65
2024/01/08 01:08:23;;;;;;;;;;;;;;;17.84;62.50;97337.00;2086299;28;20382;-65
2024/01/08 01:09:23;;;;;;;;;;;;;;;17.82;62.52;97342.59;2086877;28;19932;-65
2024/01/08 01:10:25;;;;;;;;;;;;;;;17.83;62.38;97340.75;2091788;28;20929;-67
2024/01/08 01:11:25;;;;;;;;;;;;;;;17.81;62.28;97335.59;2089902;28;19932;-66
2024/01/08 01:12:27;;;;;;;;;;;;;;;17.78;62.20;97341.44;2092797;28;20408;-65
2024/01/08 01:13:28;;;;;;;;;;;;;;;17.80;62.43;97336.66;2089434;28;19946;-65
2024/01/08 01:14:31;;;;;;;;;;;;;;;17.79;62.23;97339.56;2086370;28;20415;-65
2024/01/08 01:15:32;;;;;;;;;;;;;;;17.77;62.54;97338.94;2089407;28;19932;-66
2024/01/08 01:16:34;;;;;;;;;;;;;;;17.81;62.46;97337.47;2089736;28;20391;-65
2024/01/08 01:17:35;;;;;;;;;;;;;;;17.75;62.53;97333.81;2090715;28;19929;-65
2024/01/08 01:18:36;;;;;;;;;;;;;;;17.74;62.42;97342.06;2092938;28;20421;-65
2024/01/08 01:19:37;;;;;;;;;;;;;;;17.76;62.27;97340.00;2091127;28;19929;-65
2024/01/08 01:20:38;;;;;;;;;;;;;;;17.75;62.21;97341.84;2089973;28;20352;-65
2024/01/08 01:21:39;;;;;;;;;;;;;;;17.70;62.33;97338.22;2087001;28;19939;-65
2024/01/08 01:22:40;;;;;;;;;;;;;;;17.70;62.57;97339.03;2086015;28;20431;-65
2024/01/08 01:23:41;;;;;;;;;;;;;;;17.71;62.52;97342.53;2090181;28;19927;-65
2024/01/08 01:24:42;;;;;;;;;;;;;;;17.72;62.53;97349.53;2089170;28;19936;-65
2024/01/08 01:25:43;;;;;;;;;;;;;;;17.67;62.54;97342.19;2092051;28;19929;-65
2024/01/08 01:26:44;;;;;;;;;;;;;;;17.69;62.29;97334.72;2090550;28;19924;-65
2024/01/08 01:27:44;;;;;;;;;;;;;;;17.67;62.38;97344.06;2089907;28;20363;-65
2024/01/08 01:28:46;;;;;;;;;;;;;;;17.65;62.46;97344.28;2090724;28;19979;-66
2024/01/08 01:29:48;;;;;;;;;;;;;;;17.65;62.68;97345.09;2088834;28;19929;-65
2024/01/08 01:30:50;;;;;;;;;;;;;;;17.62;62.49;97337.50;2090037;28;20493;-66
2024/01/08 01:31:50;;;;;;;;;;;;;;;17.63;62.37;97341.84;2090379;28;19932;-65
2024/01/08 01:32:52;;;;;;;;;;;;;;;17.60;62.60;97346.81;2091038;28;19975;-65
2024/01/08 01:33:52;;;;;;;;;;;;;;;17.60;62.60;97347.63;2091093;28;19929;-65
2024/01/08 01:34:54;;;;;;;;;;;;;;;17.60;62.72;97347.63;2088955;28;19960;-66
2024/01/08 01:35:55;;;;;;;;;;;;;;;17.61;62.35;97354.63;2093516;28;20417;-66
2024/01/08 01:36:56;;;;;;;;;;;;;;;17.61;62.46;97343.91;2091635;28;19971;-65
2024/01/08 01:37:58;;;;;;;;;;;;;;;17.64;62.32;97353.38;2092731;28;19932;-65
2024/01/08 01:39:00;;;;;;;;;;;;;;;17.63;62.39;97346.34;2091243;28;19985;-66
2024/01/08 01:40:00;;;;;;;;;;;;;;;17.62;62.47;97350.91;2091127;28;19935;-66
2024/01/08 01:41:02;;;;;;;;;;;;;;;17.61;62.57;97351.16;2090242;28;20360;-66
2024/01/08 01:42:03;;;;;;;;;;;;;;;17.62;62.50;97345.53;2088516;28;20055;-66
2024/01/08 01:43:19;;;;;;;;;;;;;;;17.59;62.61;97353.22;2089091;28;19932;-65
2024/01/08 01:44:19;;;;;;;;;;;;;;;17.59;62.43;97340.63;2089493;28;19924;-66
2024/01/08 01:45:23;;;;;;;;;;;;;;;17.61;62.32;97346.59;2091045;28;19964;-65
2024/01/08 01:46:25;;;;;;;;;;;;;;;17.60;62.35;97350.31;2088769;28;20419;-65
2024/01/08 01:47:27;;;;;;;;;;;;;;;17.59;62.56;97354.03;2089262;28;19929;-66
2024/01/08 01:48:28;;;;;;;;;;;;;;;17.57;62.34;97352.63;2091476;28;22173;-66
2024/01/08 01:49:29;;;;;;;;;;;;;;;17.60;62.33;97358.34;2092590;28;20015;-66
2024/01/08 01:50:30;;;;;;;;;;;;;;;17.57;62.31;97353.44;2090868;28;19933;-67
2024/01/08 01:51:32;;;;;;;;;;;;;;;17.60;62.45;97355.66;2090890;28;20142;-66
2024/01/08 01:52:33;;;;;;;;;;;;;;;17.58;62.34;97354.28;2087794;28;19936;-66
2024/01/08 01:53:34;;;;;;;;;;;;;;;17.57;62.31;97353.44;2088541;28;20023;-66
2024/01/08 01:54:35;;;;;;;;;;;;;;;17.54;62.54;97361.13;2089877;28;19932;-66
2024/01/08 01:55:38;;;;;;;;;;;;;;;17.53;62.50;97360.31;2088687;28;19956;-66
2024/01/08 01:56:39;;;;;;;;;;;;;;;17.56;62.32;97356.38;2090541;28;19932;-66
2024/01/08 01:57:41;;;;;;;;;;;;;;;17.55;62.29;97360.91;2088374;28;19928;-66
2024/01/08 01:58:42;;;;;;;;;;;;;;;17.53;62.56;97359.50;2086068;28;19929;-66
2024/01/08 01:59:43;;;;;;;;;;;;;;;17.51;62.52;97358.91;2089505;28;20367;-66
2024/01/08 02:00:46;;;;;;;;;;;;;;;17.53;62.61;97357.63;2088980;28;19931;-66
2024/01/08 02:01:47;;;;;;;;;;;;;;;17.52;62.43;97360.53;2090199;28;19932;-66
2024/01/08 02:02:48;;;;;;;;;;;;;;;17.49;62.53;97359.13;2091429;28;20022;-66
2024/01/08 02:03:49;;;;;;;;;;;;;;;17.51;62.26;97354.38;2090521;28;19936;-66
2024/01/08 02:04:51;;;;;;;;;;;;;;;17.49;62.52;97356.44;2086421;28;20479;-65
2024/01/08 02:05:52;;;;;;;;;;;;;;;17.49;62.62;97350.28;2089105;28;19929;-67
2024/01/08 02:06:54;;;;;;;;;;;;;;;17.49;62.43;97350.28;2092062;28;20379;-66
2024/01/08 02:07:55;;;;;;;;;;;;;;;17.47;62.42;97352.34;2084030;28;19925;-65
2024/01/08 02:08:57;;;;;;;;;;;;;;;17.51;62.41;97357.03;2087687;28;20013;-66
2024/01/08 02:09:57;;;;;;;;;;;;;;;17.48;62.31;97362.84;2087875;28;19924;-66
2024/01/08 02:10:59;;;;;;;;;;;;;;;17.47;62.32;97358.56;2086943;28;20015;-66
2024/01/08 02:12:00;;;;;;;;;;;;;;;17.46;62.26;97367.63;2089972;28;20539;-66
2024/01/08 02:13:03;;;;;;;;;;;;;;;17.51;62.21;97361.59;2090220;28;19924;-66
2024/01/08 02:14:03;;;;;;;;;;;;;;;17.48;62.40;97365.53;2088148;28;19940;-66
2024/01/08 02:15:05;;;;;;;;;;;;;;;17.46;62.20;97362.25;2092395;28;20452;-65
2024/01/08 02:16:07;;;;;;;;;;;;;;;17.43;62.53;97363.53;2090901;28;19936;-66
2024/01/08 02:17:09;;;;;;;;;;;;;;;17.43;62.55;97366.22;2088920;28;19964;-65
2024/01/08 02:18:09;;;;;;;;;;;;;;;17.46;62.26;97366.81;2088936;28;19939;-65
2024/01/08 02:19:11;;;;;;;;;;;;;;;17.45;62.25;97366.00;2089421;28;20012;-66
2024/01/08 02:20:12;;;;;;;;;;;;;;;17.40;62.35;97369.34;2089222;28;20019;-65
2024/01/08 02:21:14;;;;;;;;;;;;;;;17.41;62.16;97367.47;2093137;28;19935;-66
2024/01/08 02:22:14;;;;;;;;;;;;;;;17.42;62.31;97358.41;2088173;28;19928;-66
2024/01/08 02:23:17;;;;;;;;;;;;;;;17.39;62.53;97361.56;2087312;28;20002;-66
2024/01/08 02:24:18;;;;;;;;;;;;;;;17.40;62.38;97360.50;2091251;28;19952;-66
2024/01/08 02:25:20;;;;;;;;;;;;;;;17.39;62.40;97356.19;2092230;28;20412;-66
2024/01/08 02:26:21;;;;;;;;;;;;;;;17.40;62.39;97371.22;2087327;28;19935;-66
2024/01/08 02:27:23;;;;;;;;;;;;;;;17.36;62.66;97368.19;2089567;28;20412;-66
2024/01/08 02:28:23;;;;;;;;;;;;;;;17.37;62.34;97363.63;2082810;28;19925;-66
2024/01/08 02:29:25;;;;;;;;;;;;;;;17.37;62.31;97375.16;2087999;28;19929;-65
2024/01/08 02:30:26;;;;;;;;;;;;;;;17.35;62.67;97376.44;2088656;28;19929;-67
2024/01/08 02:31:26;;;;;;;;;;;;;;;17.28;62.49;97376.53;2089700;28;20015;-66
2024/01/08 02:32:28;;;;;;;;;;;;;;;17.27;62.47;97380.22;2090640;28;20024;-66
2024/01/08 02:33:28;;;;;;;;;;;;;;;17.29;62.71;97367.44;2088567;28;19932;-66
2024/01/08 02:34:30;;;;;;;;;;;;;;;17.29;62.71;97372.78;2088685;28;20407;-66
2024/01/08 02:35:31;;;;;;;;;;;;;;;17.30;62.54;97374.44;2089801;28;19936;-66
2024/01/08 02:36:32;;;;;;;;;;;;;;;17.32;62.23;97375.00;2079326;28;20306;-65
2024/01/08 02:37:33;;;;;;;;;;;;;;;17.30;62.51;97376.28;2082574;28;19933;-66
2024/01/08 02:38:36;;;;;;;;;;;;;;;17.24;62.90;97375.31;2078974;28;20386;-66
2024/01/08 02:39:36;;;;;;;;;;;;;;;17.27;62.79;97374.06;2083457;28;20833;-66
2024/01/08 02:40:38;;;;;;;;;;;;;;;17.23;62.76;97373.69;2082743;28;19972;-66
2024/01/08 02:41:38;;;;;;;;;;;;;;;17.23;62.65;97378.25;2081510;28;19925;-66
2024/01/08 02:42:41;;;;;;;;;;;;;;;17.19;62.89;97376.03;2081209;28;19999;-66
2024/01/08 02:43:41;;;;;;;;;;;;;;;17.23;62.83;97378.25;2077974;28;20024;-66
2024/01/08 02:44:43;;;;;;;;;;;;;;;17.22;62.79;97380.13;2081119;28;19940;-66
2024/01/08 02:45:44;;;;;;;;;;;;;;;17.21;62.59;97375.78;2080688;28;19937;-66
2024/01/08 02:46:45;;;;;;;;;;;;;;;17.18;62.86;97379.72;2079806;28;20048;-66
2024/01/08 02:47:46;;;;;;;;;;;;;;;17.17;62.80;97374.59;2082706;28;20659;-66
2024/01/08 02:48:48;;;;;;;;;;;;;;;17.18;62.67;97377.03;2083036;28;19924;-66
2024/01/08 02:49:48;;;;;;;;;;;;;;;17.15;62.91;97374.00;2079650;28;20411;-66
2024/01/08 02:50:50;;;;;;;;;;;;;;;17.12;62.68;97371.78;2083680;28;19956;-65
2024/01/08 02:51:50;;;;;;;;;;;;;;;17.14;62.96;97375.88;2079941;28;20315;-66
2024/01/08 02:52:52;;;;;;;;;;;;;;;17.13;62.87;97368.03;2078912;28;20016;-66
2024/01/08 02:53:54;;;;;;;;;;;;;;;17.11;62.94;97364.78;2079815;28;19950;-66
2024/01/08 02:54:56;;;;;;;;;;;;;;;17.11;62.85;97370.16;2080712;28;19984;-66
2024/01/08 02:55:56;;;;;;;;;;;;;;;17.09;63.01;97366.88;2078286;28;19939;-66
2024/01/08 02:56:59;;;;;;;;;;;;;;;17.04;63.15;97372.88;2077630;28;19967;-66
2024/01/08 02:58:02;;;;;;;;;;;;;;;17.07;62.94;97366.25;2081794;28;19931;-65
2024/01/08 02:59:06;;;;;;;;;;;;;;;17.08;62.93;97375.97;2080304;28;19990;-66
2024/01/08 03:00:08;;;;;;;;;;;;;;;17.08;62.81;97365.25;2081485;28;20027;-66
2024/01/08 03:01:10;;;;;;;;;;;;;;;17.09;62.81;97366.88;2081420;28;19931;-66
2024/01/08 03:02:11;;;;;;;;;;;;;;;17.08;62.75;97371.41;2079514;28;19936;-66
2024/01/08 03:03:12;;;;;;;;;;;;;;;17.05;63.03;97365.66;2082627;28;19979;-66
2024/01/08 03:04:13;;;;;;;;;;;;;;;17.04;62.96;97372.88;2078916;28;19933;-66
2024/01/08 03:05:15;;;;;;;;;;;;;;;17.03;63.17;97373.13;2082454;28;19941;-66
2024/01/08 03:06:15;;;;;;;;;;;;;;;17.02;62.90;97372.31;2081859;28;20397;-66
2024/01/08 03:07:20;;;;;;;;;;;;;;;17.02;63.01;97376.84;2083213;28;19968;-65
2024/01/08 03:08:20;;;;;;;;;;;;;;;17.02;62.95;97375.00;2076957;28;19935;-66
2024/01/08 03:09:23;;;;;;;;;;;;;;;17.04;63.02;97383.59;2084545;28;19933;-66
2024/01/08 03:10:24;;;;;;;;;;;;;;;17.03;63.03;97381.97;2082678;28;19925;-66
2024/01/08 03:11:26;;;;;;;;;;;;;;;17.04;62.96;97382.78;2081785;28;19960;-65
2024/01/08 03:12:26;;;;;;;;;;;;;;;17.03;62.82;97378.50;2079140;28;19932;-65
2024/01/08 03:13:28;;;;;;;;;;;;;;;17.06;62.99;97384.22;2080874;28;19964;-65
2024/01/08 03:14:28;;;;;;;;;;;;;;;17.04;62.80;97380.94;2080679;28;20285;-66
2024/01/08 03:15:30;;;;;;;;;;;;;;;17.02;62.97;97383.03;2081088;28;20048;-66
2024/01/08 03:16:30;;;;;;;;;;;;;;;17.01;62.84;97385.91;2080304;28;19929;-66
2024/01/08 03:17:32;;;;;;;;;;;;;;;17.06;62.87;97388.75;2080880;28;19964;-65
2024/01/08 03:18:33;;;;;;;;;;;;;;;17.02;62.86;97384.88;2079467;28;19932;-66
2024/01/08 03:19:34;;;;;;;;;;;;;;;17.00;62.81;97384.28;2081530;28;19968;-65
2024/01/08 03:20:35;;;;;;;;;;;;;;;16.97;63.07;97390.91;2083432;28;19931;-66
2024/01/08 03:21:36;;;;;;;;;;;;;;;16.99;62.99;97386.13;2082928;28;19967;-66
2024/01/08 03:22:39;;;;;;;;;;;;;;;17.03;62.77;97387.34;2078123;28;20556;-66
2024/01/08 03:23:40;;;;;;;;;;;;;;;17.00;62.80;97385.09;2082719;28;20384;-66
2024/01/08 03:24:42;;;;;;;;;;;;;;;17.00;62.75;97381.63;2081125;28;19929;-65
2024/01/08 03:25:43;;;;;;;;;;;;;;;16.97;63.07;97386.38;2082165;28;19987;-66
2024/01/08 03:26:44;;;;;;;;;;;;;;;16.97;62.97;97390.91;2079636;28;19929;-66
2024/01/08 03:27:45;;;;;;;;;;;;;;;16.97;63.07;97390.91;2079678;28;19938;-65
2024/01/08 03:28:47;;;;;;;;;;;;;;;16.93;62.90;97392.38;2081011;28;20028;-66
2024/01/08 03:29:47;;;;;;;;;;;;;;;16.90;63.01;97390.97;2080740;28;19933;-65
2024/01/08 03:30:48;;;;;;;;;;;;;;;16.94;63.09;97386.00;2082068;28;19991;-66
2024/01/08 03:31:49;;;;;;;;;;;;;;;16.94;62.98;97399.41;2081215;28;19933;-66
2024/01/08 03:32:51;;;;;;;;;;;;;;;16.96;62.79;97389.25;2080246;28;19933;-66
2024/01/08 03:33:52;;;;;;;;;;;;;;;16.96;62.85;97383.91;2080276;28;19929;-65
2024/01/08 03:34:53;;;;;;;;;;;;;;;16.94;62.95;97392.19;2081440;28;19925;-66
2024/01/08 03:35:55;;;;;;;;;;;;;;;16.96;62.71;97389.25;2083955;28;19971;-65
2024/01/08 03:36:55;;;;;;;;;;;;;;;16.90;62.93;97384.78;2080552;28;19929;-66
2024/01/08 03:37:57;;;;;;;;;;;;;;;16.94;62.81;97389.50;2080836;28;19939;-66
2024/01/08 03:38:57;;;;;;;;;;;;;;;16.95;62.71;97391.13;2082978;28;19932;-66
2024/01/08 03:40:02;;;;;;;;;;;;;;;16.95;62.83;97387.63;2077284;28;19975;-65
2024/01/08 03:41:03;;;;;;;;;;;;;;;16.94;62.90;97386.00;2081812;28;19941;-66
2024/01/08 03:42:05;;;;;;;;;;;;;;;16.93;62.93;97400.41;2076284;28;19929;-65
2024/01/08 03:43:06;;;;;;;;;;;;;;;16.92;62.81;97377.38;2082529;28;20001;-65
2024/01/08 03:44:08;;;;;;;;;;;;;;;16.92;62.79;97388.06;2079275;28;20002;-66
2024/01/08 03:45:09;;;;;;;;;;;;;;;16.92;62.81;97396.13;2079598;28;19928;-66
2024/01/08 03:46:10;;;;;;;;;;;;;;;16.92;62.80;97385.41;2080855;28;21582;-66
2024/01/08 03:47:11;;;;;;;;;;;;;;;16.89;62.81;97388.53;2081776;28;19944;-65
2024/01/08 03:48:13;;;;;;;;;;;;;;;16.93;62.94;97384.34;2080287;28;20020;-66
2024/01/08 03:49:14;;;;;;;;;;;;;;;16.89;62.95;97402.72;2080476;28;19928;-66
2024/01/08 03:50:15;;;;;;;;;;;;;;;16.86;62.90;97394.34;2078038;28;19936;-65
2024/01/08 03:51:17;;;;;;;;;;;;;;;16.87;63.07;97395.97;2081828;28;20679;-66
2024/01/08 03:52:17;;;;;;;;;;;;;;;16.89;62.71;97400.06;2080662;28;20018;-66
2024/01/08 03:53:19;;;;;;;;;;;;;;;16.88;62.60;97400.25;2081400;28;20015;-65
2024/01/08 03:54:20;;;;;;;;;;;;;;;16.89;62.66;97399.25;2079375;28;19929;-65
2024/01/08 03:55:23;;;;;;;;;;;;;;;16.91;62.54;97394.47;2082983;28;19924;-66
2024/01/08 03:56:24;;;;;;;;;;;;;;;16.93;62.62;97400.41;2080091;28;19925;-66
2024/01/08 03:57:24;;;;;;;;;;;;;;;16.92;62.67;97401.47;2083451;28;19925;-65
2024/01/08 03:58:26;;;;;;;;;;;;;;;16.88;62.73;97405.63;2079927;28;19925;-66
2024/01/08 03:59:27;;;;;;;;;;;;;;;16.85;62.98;97406.06;2078242;28;20024;-65
2024/01/08 04:00:28;;;;;;;;;;;;;;;16.85;62.62;97412.22;2078134;28;19929;-66
2024/01/08 04:01:29;;;;;;;;;;;;;;;16.85;62.82;97412.22;2082918;28;19961;-66
2024/01/08 04:02:30;;;;;;;;;;;;;;;16.87;62.71;97412.84;2079128;28;20533;-66
2024/01/08 04:03:31;;;;;;;;;;;;;;;16.87;62.60;97407.47;2079350;28;20277;-65
2024/01/08 04:04:33;;;;;;;;;;;;;;;16.85;62.81;97406.06;2078861;28;20024;-66
2024/01/08 04:05:33;;;;;;;;;;;;;;;16.82;62.89;97403.84;2081321;28;19925;-65
2024/01/08 04:06:35;;;;;;;;;;;;;;;16.82;62.92;97407.31;2078190;28;19969;-65
2024/01/08 04:07:36;;;;;;;;;;;;;;;16.84;62.86;97415.16;2081678;28;19925;-66
2024/01/08 04:08:37;;;;;;;;;;;;;;;16.86;62.82;97416.56;2081065;28;19960;-66
2024/01/08 04:09:39;;;;;;;;;;;;;;;16.90;62.70;97411.56;2072857;28;19933;-65
2024/01/08 04:10:42;;;;;;;;;;;;;;;16.94;62.58;97407.44;2078085;28;19928;-65
2024/01/08 04:11:43;;;;;;;;;;;;;;;16.97;62.51;97415.03;2081563;28;19936;-65
2024/01/08 04:12:43;;;;;;;;;;;;;;;17.03;62.54;97419.47;2079532;28;20012;-65
2024/01/08 04:13:45;;;;;;;;;;;;;;;17.10;61.97;97412.16;2081168;28;19925;-66
2024/01/08 04:14:46;;;;;;;;;;;;;;;17.16;62.04;97421.19;2079372;28;19924;-66
2024/01/08 04:15:47;;;;;;;;;;;;;;;17.22;61.85;97419.47;2079965;28;19925;-66
2024/01/08 04:16:48;;;;;;;;;;;;;;;17.28;61.80;97418.59;2077284;28;19986;-65
2024/01/08 04:17:50;;;;;;;;;;;;;;;17.34;61.67;97421.19;2081890;28;19952;-66
2024/01/08 04:18:51;;;;;;;;;;;;;;;17.38;61.52;97419.69;2078678;28;19929;-66
2024/01/08 04:19:52;;;;;;;;;;;;;;;17.41;61.59;97415.72;2081424;28;20070;-66
2024/01/08 04:20:53;;;;;;;;;;;;;;;17.45;61.71;97416.94;2088044;28;20340;-65
2024/01/08 04:21:55;;;;;;;;;;;;;;;17.50;61.38;97422.44;2089436;28;19939;-66
2024/01/08 04:22:55;;;;;;;;;;;;;;;17.53;61.49;97418.50;2088658;28;19931;-66
2024/01/08 04:23:57;;;;;;;;;;;;;;;17.55;61.57;97430.63;2086909;28;20011;-66
2024/01/08 04:24:57;;;;;;;;;;;;;;;17.60;61.51;97430.75;2089567;28;20353;-65
2024/01/08 04:26:00;;;;;;;;;;;;;;;17.61;61.49;97423.53;2086808;28;19951;-66
2024/01/08 04:27:01;;;;;;;;;;;;;;;17.64;61.53;97423.09;2089398;28;19935;-66
2024/01/08 04:28:02;;;;;;;;;;;;;;;17.65;61.39;97420.16;2085599;28;19975;-65
2024/01/08 04:29:03;;;;;;;;;;;;;;;17.70;61.58;97432.09;2090891;28;19935;-66
2024/01/08 04:30:05;;;;;;;;;;;;;;;17.71;61.26;97425.66;2093389;28;20303;-65
2024/01/08 04:31:06;;;;;;;;;;;;;;;17.73;61.41;97427.06;2090764;28;20365;-66
2024/01/08 04:32:07;;;;;;;;;;;;;;;17.76;61.47;97425.81;2088347;28;19931;-66
2024/01/08 04:33:08;;;;;;;;;;;;;;;17.78;61.49;97429.09;2090696;28;19960;-65
2024/01/08 04:34:09;;;;;;;;;;;;;;;17.81;61.45;97434.03;2089903;28;19928;-66
2024/01/08 04:35:11;;;;;;;;;;;;;;;17.84;61.36;97438.94;2090700;28;19971;-66
2024/01/08 04:36:13;;;;;;;;;;;;;;;17.86;61.47;97431.47;2088406;28;20311;-66
2024/01/08 04:37:13;;;;;;;;;;;;;;;17.88;61.38;97436.59;2088435;28;19933;-66
2024/01/08 04:38:15;;;;;;;;;;;;;;;17.90;61.45;97438.00;2086679;28;20019;-66
2024/01/08 04:39:15;;;;;;;;;;;;;;;17.91;61.15;97436.16;2090544;28;19928;-65
2024/01/08 04:40:18;;;;;;;;;;;;;;;17.94;61.37;97438.38;2088316;28;20368;-66
2024/01/08 04:41:20;;;;;;;;;;;;;;;17.95;61.31;97440.84;2090290;28;19932;-65
2024/01/08 04:42:22;;;;;;;;;;;;;;;17.97;61.18;97445.97;2087724;28;19984;-65
2024/01/08 04:43:22;;;;;;;;;;;;;;;17.98;61.27;97437.69;2089550;28;20280;-66
2024/01/08 04:44:24;;;;;;;;;;;;;;;18.00;61.36;97440.16;2089687;28;19983;-66
2024/01/08 04:45:24;;;;;;;;;;;;;;;18.02;61.12;97438.84;2088104;28;19933;-65
2024/01/08 04:46:26;;;;;;;;;;;;;;;18.04;61.31;97441.31;2087526;28;19975;-67
2024/01/08 04:47:26;;;;;;;;;;;;;;;18.06;61.29;97441.94;2092128;28;20007;-65
2024/01/08 04:48:28;;;;;;;;;;;;;;;18.08;61.15;97437.97;2088660;28;20031;-66
2024/01/08 04:49:29;;;;;;;;;;;;;;;18.11;61.04;97439.38;2091270;28;19924;-65
2024/01/08 04:50:30;;;;;;;;;;;;;;;18.16;61.19;97446.72;2085623;28;20456;-66
2024/01/08 04:51:31;;;;;;;;;;;;;;;18.17;61.25;97448.38;2087415;28;19972;-66
2024/01/08 04:52:32;;;;;;;;;;;;;;;18.17;61.21;97445.69;2089106;28;19924;-66
2024/01/08 04:53:34;;;;;;;;;;;;;;;18.19;61.23;97451.63;2086213;28;19933;-66
2024/01/08 04:54:34;;;;;;;;;;;;;;;18.22;61.30;97448.47;2088554;28;19948;-66
2024/01/08 04:55:36;;;;;;;;;;;;;;;18.22;61.13;97457.38;2088536;28;20454;-65
2024/01/08 04:56:38;;;;;;;;;;;;;;;18.24;60.92;97457.13;2088931;28;19929;-65
2024/01/08 04:57:39;;;;;;;;;;;;;;;18.26;61.20;97457.72;2087895;28;19932;-66
2024/01/08 04:58:40;;;;;;;;;;;;;;;18.28;60.97;97456.44;2090522;28;19929;-66
2024/01/08 04:59:40;;;;;;;;;;;;;;;18.30;60.82;97458.88;2091222;28;20019;-66
2024/01/08 05:00:42;;;;;;;;;;;;;;;18.31;61.10;97455.19;2089891;28;19982;-66
2024/01/08 05:01:43;;;;;;;;;;;;;;;18.33;60.96;97455.78;2089480;28;20394;-66
2024/01/08 05:02:43;;;;;;;;;;;;;;;18.33;60.97;97450.41;2088812;28;19928;-66
2024/01/08 05:03:45;;;;;;;;;;;;;;;18.35;60.85;97460.91;2089544;28;20028;-66
2024/01/08 05:04:46;;;;;;;;;;;;;;;18.36;60.92;97460.69;2089455;28;20649;-66
2024/01/08 05:05:46;;;;;;;;;;;;;;;18.38;60.82;97463.13;2090790;28;19979;-67
2024/01/08 05:06:48;;;;;;;;;;;;;;;18.38;61.29;97463.13;2088488;28;20418;-66
2024/01/08 05:07:49;;;;;;;;;;;;;;;18.39;60.85;97465.59;2089401;28;19932;-65
2024/01/08 05:08:50;;;;;;;;;;;;;;;18.40;61.03;97459.16;2088236;28;19932;-66
2024/01/08 05:09:51;;;;;;;;;;;;;;;18.42;60.86;97465.13;2087816;28;19925;-66
2024/01/08 05:10:52;;;;;;;;;;;;;;;18.41;61.15;97471.50;2088311;28;20007;-66
2024/01/08 05:11:54;;;;;;;;;;;;;;;18.41;60.85;97470.69;2089830;28;20349;-65
2024/01/08 05:12:56;;;;;;;;;;;;;;;18.41;60.92;97471.50;2088984;28;19924;-67
2024/01/08 05:13:57;;;;;;;;;;;;;;;18.43;60.82;97474.78;2090285;28;21903;-65
2024/01/08 05:14:58;;;;;;;;;;;;;;;18.45;60.80;97478.06;2090395;28;19972;-65
2024/01/08 05:15:59;;;;;;;;;;;;;;;18.46;60.83;97478.88;2088500;28;19929;-66
2024/01/08 05:17:00;;;;;;;;;;;;;;;18.46;61.17;97479.69;2088852;28;19968;-66
2024/01/08 05:18:01;;;;;;;;;;;;;;;18.46;60.81;97486.94;2090068;28;20392;-65
2024/01/08 05:19:02;;;;;;;;;;;;;;;18.47;61.16;97486.72;2089814;28;19963;-66
2024/01/08 05:20:03;;;;;;;;;;;;;;;18.48;60.94;97485.66;2089726;28;20307;-66